Time;durP1;ratioP1;P1;durP2;ratioP2;P2;SDS_P1;SDS_P2;PMS_P1;PMS_P2;Temp;Humidity;BMP_temperature;BMP_pressure;BME280_temperature;BME280_humidity;BME280_pressure;Samples;Min_cycle;Max_cycle;Signal;HPM_P1;HPM_P2
2021/12/29 00:00:39;;;;;;;54.08;31.02;;;;;;;3.83;100.00;93745.78;5136304;27;20019;-70
2021/12/29 00:03:05;;;;;;;57.38;33.30;;;;;;;3.80;100.00;93744.75;5135032;27;20063;-69
2021/12/29 00:05:31;;;;;;;64.22;34.00;;;;;;;3.71;100.00;93744.84;5136198;27;20019;-69
2021/12/29 00:07:57;;;;;;;54.13;31.30;;;;;;;3.71;100.00;93742.16;5135829;27;20019;-69
2021/12/29 00:10:23;;;;;;;56.38;30.42;;;;;;;3.67;100.00;93741.59;5136426;27;20051;-70
2021/12/29 00:12:52;;;;;;;52.22;28.63;;;;;;;3.92;100.00;93755.72;5134808;27;20124;-70
2021/12/29 00:15:20;;;;;;;45.80;25.73;;;;;;;3.62;100.00;93753.69;5135906;27;20026;-70
2021/12/29 00:17:46;;;;;;;51.75;27.55;;;;;;;3.52;100.00;93753.03;5135567;27;20026;-70
2021/12/29 00:20:17;;;;;;;52.05;30.00;;;;;;;3.73;100.00;93740.47;5135892;27;20371;-70
2021/12/29 00:22:43;;;;;;;55.53;31.52;;;;;;;3.84;100.00;93731.88;5134577;27;20023;-69
2021/12/29 00:25:10;;;;;;;61.60;31.73;;;;;;;3.43;100.00;93718.22;5135497;27;20023;-69
2021/12/29 00:27:35;;;;;;;55.97;29.50;;;;;;;3.52;100.00;93720.81;5135954;27;20023;-70
2021/12/29 00:30:02;;;;;;;50.90;27.98;;;;;;;3.44;100.00;93719.69;5135703;27;20033;-69
2021/12/29 00:32:27;;;;;;;52.80;29.42;;;;;;;3.22;100.00;93728.78;5135358;27;20102;-69
2021/12/29 00:34:53;;;;;;;59.60;30.05;;;;;;;3.52;100.00;93720.81;5135927;27;20094;-69
2021/12/29 00:37:19;;;;;;;57.45;30.77;;;;;;;3.60;100.00;93736.56;5135892;27;20015;-69
2021/12/29 00:39:45;;;;;;;58.45;29.38;;;;;;;3.66;100.00;93734.75;5135359;27;20027;-69
2021/12/29 00:42:10;;;;;;;68.53;36.63;;;;;;;3.70;100.00;93719.19;5134179;27;20027;-69
2021/12/29 00:44:36;;;;;;;62.30;33.90;;;;;;;3.90;100.00;93726.63;5134102;27;20019;-69
2021/12/29 00:47:02;;;;;;;66.93;34.58;;;;;;;4.06;100.00;93728.09;5135291;27;20027;-69
2021/12/29 00:49:33;;;;;;;66.30;36.47;;;;;;;4.18;100.00;93735.16;5135212;27;20027;-69
2021/12/29 00:52:00;;;;;;;68.65;35.05;;;;;;;4.25;100.00;93731.34;5134935;27;20023;-69
2021/12/29 00:54:25;;;;;;;58.65;32.90;;;;;;;4.31;100.00;93747.56;5135201;27;20455;-70
2021/12/29 00:56:51;;;;;;;59.95;32.28;;;;;;;4.03;100.00;93745.16;5134679;27;20182;-70
2021/12/29 00:59:19;;;;;;;59.17;32.88;;;;;;;4.00;100.00;93741.44;5135097;27;20020;-70
2021/12/29 01:01:45;;;;;;;55.08;29.70;;;;;;;4.00;100.00;93729.97;5135290;27;20027;-69
2021/12/29 01:04:11;;;;;;;56.03;29.90;;;;;;;3.99;100.00;93736.53;5135227;27;20027;-69
2021/12/29 01:06:37;;;;;;;48.10;25.60;;;;;;;4.10;100.00;93731.34;5133671;27;20046;-69
2021/12/29 01:09:03;;;;;;;47.53;26.15;;;;;;;4.10;100.00;93725.25;5134540;27;20030;-70
2021/12/29 01:11:28;;;;;;;33.97;20.40;;;;;;;4.21;100.00;93726.19;5134437;27;20027;-69
2021/12/29 01:13:54;;;;;;;29.98;18.58;;;;;;;4.43;100.00;93727.75;5133194;27;20054;-69
2021/12/29 01:18:59;;;;;;;28.23;17.10;;;;;;;4.19;100.00;93730.53;5134800;27;20106;-69
2021/12/29 01:21:24;;;;;;;25.88;15.60;;;;;;;4.35;100.00;93715.88;5135006;27;20031;-70
2021/12/29 01:23:50;;;;;;;29.73;17.23;;;;;;;4.61;100.00;93715.28;5134424;27;20458;-70
2021/12/29 01:26:17;;;;;;;33.25;17.52;;;;;;;4.25;100.00;93706.44;5133325;27;20441;-70
2021/12/29 01:28:43;;;;;;;33.60;18.85;;;;;;;4.16;100.00;93710.72;5134367;27;20451;-70
2021/12/29 01:31:08;;;;;;;29.40;17.75;;;;;;;4.28;100.00;93708.94;5134298;27;20037;-69
2021/12/29 01:33:34;;;;;;;31.05;18.13;;;;;;;4.35;100.00;93700.50;5134492;27;20107;-70
2021/12/29 01:36:00;;;;;;;36.70;19.98;;;;;;;4.79;100.00;93701.63;5134658;27;20106;-70
2021/12/29 01:38:25;;;;;;;34.67;18.05;;;;;;;4.89;100.00;93691.47;5134181;27;20462;-70
2021/12/29 01:40:51;;;;;;;29.63;16.90;;;;;;;5.07;100.00;93695.88;5134664;27;20038;-70
2021/12/29 01:43:18;;;;;;;33.83;18.73;;;;;;;4.89;100.00;93697.63;5133398;27;20022;-70
2021/12/29 01:45:43;;;;;;;35.25;18.80;;;;;;;4.90;100.00;93693.69;5134365;27;20035;-70
2021/12/29 01:48:09;;;;;;;34.33;18.73;;;;;;;4.63;100.00;93689.44;5133107;27;20419;-70
2021/12/29 01:50:35;;;;;;;38.72;20.13;;;;;;;4.72;100.00;93688.59;5134072;27;20027;-70
2021/12/29 01:53:03;;;;;;;34.75;18.85;;;;;;;4.83;100.00;93685.31;5134247;27;20053;-70
2021/12/29 01:55:31;;;;;;;32.15;19.00;;;;;;;4.60;100.00;93681.56;5133849;27;20118;-70
2021/12/29 01:57:58;;;;;;;32.28;19.63;;;;;;;4.68;100.00;93674.59;5133977;27;20075;-70
2021/12/29 02:00:26;;;;;;;30.75;17.95;;;;;;;4.44;100.00;93664.72;5133990;27;20038;-70
2021/12/29 02:02:52;;;;;;;32.22;18.45;;;;;;;4.83;100.00;93659.16;5133019;27;20023;-70
2021/12/29 02:05:18;;;;;;;31.65;19.02;;;;;;;4.72;100.00;93661.69;5134245;27;20031;-70
2021/12/29 02:07:45;;;;;;;30.08;18.33;;;;;;;4.71;100.00;93660.94;5134181;27;20039;-70
2021/12/29 02:10:13;;;;;;;42.72;20.55;;;;;;;4.56;100.00;93654.88;5133957;27;20454;-70
2021/12/29 02:12:39;;;;;;;42.22;19.67;;;;;;;4.62;100.00;93657.66;5133826;27;20123;-70
2021/12/29 02:15:06;;;;;;;36.85;19.73;;;;;;;4.72;100.00;93646.31;5132789;27;20058;-69
2021/12/29 02:17:32;;;;;;;35.25;18.05;;;;;;;4.83;100.00;93645.72;5133875;27;20030;-69
2021/12/29 02:19:59;;;;;;;32.25;17.83;;;;;;;4.85;100.00;93637.16;5133815;27;20100;-69
2021/12/29 02:25:06;;;;;;;29.70;16.70;;;;;;;4.62;100.00;93625.38;5137365;27;20438;-69
2021/12/29 02:27:32;;;;;;;33.58;18.10;;;;;;;4.77;100.00;93626.06;5138042;27;20034;-69
2021/12/29 02:29:59;;;;;;;31.38;19.15;;;;;;;4.86;100.00;93623.25;5137703;27;20042;-69
2021/12/29 02:32:24;;;;;;;31.83;19.08;;;;;;;4.90;100.00;93623.78;5137953;27;20034;-69
2021/12/29 02:34:49;;;;;;;34.65;18.60;;;;;;;4.91;100.00;93619.16;5138122;27;20030;-69
2021/12/29 02:37:19;;;;;;;31.75;19.05;;;;;;;5.04;100.00;93622.22;5136844;27;20459;-69
2021/12/29 02:39:47;;;;;;;32.75;18.88;;;;;;;5.13;100.00;93626.75;5136581;27;20023;-69
2021/12/29 02:42:14;;;;;;;33.83;18.92;;;;;;;4.74;100.00;93617.03;5137493;27;20034;-69
2021/12/29 02:44:41;;;;;;;30.70;18.33;;;;;;;4.93;100.00;93621.38;5137636;27;20034;-69
2021/12/29 02:47:07;;;;;;;37.28;19.40;;;;;;;4.66;100.00;93620.56;5137248;27;20027;-69
2021/12/29 02:49:32;;;;;;;35.65;20.38;;;;;;;4.78;100.00;93622.19;5137445;27;20023;-69
2021/12/29 02:51:58;;;;;;;31.92;18.60;;;;;;;4.76;100.00;93619.22;5137277;27;20353;-69
2021/12/29 02:54:24;;;;;;;37.95;19.27;;;;;;;4.83;100.00;93618.81;5137189;27;20394;-69
2021/12/29 02:56:54;;;;;;;33.78;18.67;;;;;;;4.72;100.00;93621.38;5136986;27;20104;-70
2021/12/29 02:59:22;;;;;;;38.40;19.63;;;;;;;4.99;100.00;93619.47;5137355;27;20019;-70
2021/12/29 03:01:48;;;;;;;34.22;20.60;;;;;;;5.00;100.00;93621.69;5137097;27;20045;-70
2021/12/29 03:04:14;;;;;;;41.45;23.92;;;;;;;5.06;100.00;93619.09;5137038;27;20030;-70
2021/12/29 03:06:40;;;;;;;38.85;22.60;;;;;;;4.96;100.00;93612.38;5137591;27;20030;-70
2021/12/29 03:09:08;;;;;;;41.65;23.60;;;;;;;4.94;100.00;93618.22;5136893;27;20027;-69
2021/12/29 03:11:35;;;;;;;44.40;24.92;;;;;;;4.85;100.00;93605.66;5137041;27;20118;-69
2021/12/29 03:14:00;;;;;;;44.53;23.55;;;;;;;5.11;100.00;93618.41;5137043;27;20019;-69
2021/12/29 03:16:27;;;;;;;41.50;23.65;;;;;;;4.96;100.00;93610.41;5136931;27;20076;-69
2021/12/29 03:18:53;;;;;;;36.65;22.25;;;;;;;4.94;100.00;93614.81;5136809;27;20020;-69
2021/12/29 03:21:19;;;;;;;40.15;22.40;;;;;;;4.76;100.00;93607.72;5136804;27;20038;-69
2021/12/29 03:23:44;;;;;;;36.20;21.48;;;;;;;4.80;100.00;93610.94;5136819;27;20165;-69
2021/12/29 03:26:10;;;;;;;38.42;21.00;;;;;;;4.90;100.00;93602.28;5136849;27;20167;-69
2021/12/29 03:28:37;;;;;;;39.42;22.52;;;;;;;4.91;100.00;93603.75;5136802;27;20019;-69
2021/12/29 03:31:03;;;;;;;36.67;21.35;;;;;;;4.87;100.00;93597.84;5139983;27;20072;-69
2021/12/29 03:33:29;;;;;;;32.85;19.58;;;;;;;5.02;100.00;93602.44;5152567;27;20019;-69
2021/12/29 03:36:00;;;;;;;37.90;21.35;;;;;;;4.94;100.00;93602.09;5149114;27;20119;-69
2021/12/29 03:38:27;;;;;;;38.00;21.08;;;;;;;4.53;100.00;93594.00;5152498;27;20026;-69
2021/12/29 03:40:54;;;;;;;36.60;21.70;;;;;;;4.88;100.00;93603.97;5154807;27;20026;-69
2021/12/29 03:43:20;;;;;;;32.20;20.10;;;;;;;5.00;100.00;93596.75;5159032;27;20035;-69
2021/12/29 03:45:49;;;;;;;39.03;21.65;;;;;;;5.16;100.00;93596.22;5153067;27;20462;-69
2021/12/29 03:48:15;;;;;;;41.85;23.52;;;;;;;5.05;100.00;93593.41;5136444;27;20026;-69
2021/12/29 03:50:42;;;;;;;41.83;24.20;;;;;;;4.97;100.00;93585.00;5135394;27;20459;-69
2021/12/29 03:53:08;;;;;;;35.72;20.65;;;;;;;4.85;100.00;93584.16;5136226;27;20034;-69
2021/12/29 03:55:34;;;;;;;42.28;21.25;;;;;;;4.39;100.00;93579.41;5135826;27;20050;-69
2021/12/29 03:58:00;;;;;;;39.55;21.75;;;;;;;4.49;100.00;93580.78;5136317;27;20051;-69
2021/12/29 04:00:25;;;;;;;39.22;21.08;;;;;;;4.73;100.00;93577.13;5135996;27;20047;-69
2021/12/29 04:02:51;;;;;;;37.58;20.92;;;;;;;4.79;100.00;93586.03;5138782;27;20378;-69
2021/12/29 04:05:20;;;;;;;39.55;21.25;;;;;;;4.80;100.00;93576.75;5136227;27;20510;-70
2021/12/29 04:07:46;;;;;;;43.55;24.58;;;;;;;4.73;100.00;93571.75;5136344;27;20079;-70
2021/12/29 04:10:12;;;;;;;40.28;23.92;;;;;;;4.73;100.00;93571.75;5135833;27;20019;-70
2021/12/29 04:12:41;;;;;;;42.42;22.08;;;;;;;4.84;100.00;93585.34;5136337;27;20033;-70
2021/12/29 04:15:09;;;;;;;38.60;22.45;;;;;;;5.09;100.00;93583.19;5135955;27;20035;-70
2021/12/29 04:17:38;;;;;;;33.00;19.67;;;;;;;4.90;100.00;93577.34;5136176;27;20450;-70
2021/12/29 04:22:54;;;;;;;36.80;21.38;;;;;;;4.91;100.00;93576.88;5135606;27;20077;-69
2021/12/29 04:25:24;;;;;;;36.20;21.33;;;;;;;4.92;100.00;93574.91;5135484;27;20027;-70
2021/12/29 04:27:54;;;;;;;34.15;20.77;;;;;;;4.84;100.00;93577.28;5135667;27;20099;-70
2021/12/29 04:30:20;;;;;;;35.28;20.25;;;;;;;4.96;100.00;93577.41;5135717;27;20371;-70
2021/12/29 04:32:46;;;;;;;33.83;20.67;;;;;;;5.11;100.00;93583.44;5134343;27;20031;-70
2021/12/29 04:35:11;;;;;;;36.08;22.35;;;;;;;5.11;100.00;93582.72;5135229;27;20015;-70
2021/12/29 04:37:37;;;;;;;37.78;21.42;;;;;;;5.15;100.00;93580.53;5135488;27;20019;-70
2021/12/29 04:40:04;;;;;;;33.92;20.75;;;;;;;5.14;100.00;93582.50;5135134;27;20079;-70
2021/12/29 04:42:30;;;;;;;33.40;20.02;;;;;;;5.11;100.00;93583.44;5135081;27;20076;-70
2021/12/29 04:44:55;;;;;;;34.20;19.35;;;;;;;5.03;100.00;93585.81;5135105;27;20091;-70
2021/12/29 04:47:27;;;;;;;35.50;20.48;;;;;;;4.81;100.00;93588.25;5134310;27;20075;-70
2021/12/29 04:49:53;;;;;;;31.13;19.27;;;;;;;5.05;100.00;93591.44;5135592;27;20444;-70
2021/12/29 04:52:19;;;;;;;32.53;19.13;;;;;;;5.09;100.00;93596.63;5135011;27;20164;-70
2021/12/29 04:54:44;;;;;;;34.88;20.17;;;;;;;5.08;100.00;93589.78;5135368;27;20027;-70
2021/12/29 04:57:10;;;;;;;36.17;21.27;;;;;;;5.14;100.00;93597.88;5134739;27;20046;-69
2021/12/29 04:59:36;;;;;;;35.60;20.35;;;;;;;5.25;100.00;93598.03;5135377;27;20440;-70
2021/12/29 05:02:03;;;;;;;34.35;18.77;;;;;;;5.09;100.00;93599.31;5134836;27;20102;-70
2021/12/29 05:04:33;;;;;;;34.65;20.10;;;;;;;5.03;100.00;93603.88;5134732;27;20019;-70
2021/12/29 05:09:45;;;;;;;34.20;20.23;;;;;;;5.05;100.00;93596.09;5135213;27;20065;-70
2021/12/29 05:12:11;;;;;;;34.67;19.52;;;;;;;5.16;100.00;93596.22;5134610;27;20455;-70
2021/12/29 05:14:37;;;;;;;34.78;19.05;;;;;;;5.13;100.00;93602.53;5134588;27;20110;-70
2021/12/29 05:17:03;;;;;;;36.05;20.63;;;;;;;5.22;100.00;93605.09;5134507;27;20086;-70
2021/12/29 05:19:29;;;;;;;35.05;19.88;;;;;;;5.27;100.00;93606.34;5135056;27;20455;-70
2021/12/29 05:21:55;;;;;;;35.92;21.23;;;;;;;5.32;100.00;93607.63;5133478;27;20030;-70
2021/12/29 05:24:20;;;;;;;37.92;20.67;;;;;;;5.21;100.00;93613.63;5135034;27;20023;-70
2021/12/29 05:26:46;;;;;;;34.70;22.08;;;;;;;5.40;100.00;93597.94;5134257;27;20015;-70
2021/12/29 05:29:11;;;;;;;37.25;21.45;;;;;;;5.19;100.00;93608.72;5134375;27;20439;-70
2021/12/29 05:31:37;;;;;;;40.20;21.98;;;;;;;5.17;100.00;93608.47;5134555;27;20446;-70
2021/12/29 05:34:03;;;;;;;38.75;22.88;;;;;;;5.48;100.00;93607.06;5134498;27;20030;-70
2021/12/29 05:36:28;;;;;;;37.30;23.08;;;;;;;5.25;100.00;93609.53;5134244;27;20011;-70
2021/12/29 05:38:55;;;;;;;40.55;22.13;;;;;;;5.28;100.00;93601.72;5134240;27;20110;-70
2021/12/29 05:41:21;;;;;;;39.72;22.50;;;;;;;5.25;100.00;93604.13;5134173;27;20026;-70
2021/12/29 05:43:47;;;;;;;40.08;22.95;;;;;;;5.30;100.00;93601.97;5134109;27;20046;-70
2021/12/29 05:46:13;;;;;;;42.35;23.30;;;;;;;5.42;100.00;93598.19;5134238;27;20455;-70
2021/12/29 05:48:38;;;;;;;45.28;24.38;;;;;;;5.32;100.00;93599.56;5134272;27;20114;-70
2021/12/29 05:51:04;;;;;;;34.08;21.70;;;;;;;5.12;100.00;93601.06;5133963;27;20175;-70
2021/12/29 05:53:30;;;;;;;43.55;23.20;;;;;;;5.21;100.00;93603.59;5134214;27;20431;-70
2021/12/29 05:55:55;;;;;;;37.53;21.70;;;;;;;5.01;100.00;93609.00;5133754;27;20067;-70
2021/12/29 05:58:21;;;;;;;34.90;20.95;;;;;;;4.90;100.00;93613.03;5134266;27;20027;-70
2021/12/29 06:00:47;;;;;;;37.03;21.73;;;;;;;4.92;100.00;93612.56;5132860;27;20084;-69
2021/12/29 06:03:13;;;;;;;36.50;22.08;;;;;;;5.12;100.00;93617.19;5132750;27;20023;-69
2021/12/29 06:05:38;;;;;;;40.88;24.27;;;;;;;5.36;100.00;93616.25;5133973;27;20098;-69
2021/12/29 06:08:05;;;;;;;46.53;24.98;;;;;;;5.09;100.00;93607.38;5133601;27;20039;-69
2021/12/29 06:10:31;;;;;;;41.05;24.30;;;;;;;5.26;100.00;93604.88;5133700;27;20022;-70
2021/12/29 06:12:57;;;;;;;41.17;22.77;;;;;;;5.31;100.00;93611.53;5133744;27;20420;-70
2021/12/29 06:15:22;;;;;;;43.30;23.08;;;;;;;4.94;100.00;93612.13;5133714;27;20444;-70
2021/12/29 06:17:48;;;;;;;49.33;28.00;;;;;;;5.00;100.00;93618.28;5133851;27;20470;-71
2021/12/29 06:20:14;;;;;;;54.67;31.60;;;;;;;5.01;100.00;93612.44;5133848;27;20079;-70
2021/12/29 06:22:41;;;;;;;65.82;33.08;;;;;;;5.17;100.00;93613.84;5133706;27;20425;-70
2021/12/29 06:25:12;;;;;;;59.88;33.83;;;;;;;5.08;100.00;93611.28;5133692;27;20499;-69
2021/12/29 06:27:38;;;;;;;69.80;40.30;;;;;;;4.97;100.00;93616.53;5133636;27;20030;-69
2021/12/29 06:30:07;;;;;;;61.58;36.45;;;;;;;5.14;100.00;93625.53;5133572;27;20207;-69
2021/12/29 06:32:32;;;;;;;59.17;32.28;;;;;;;5.18;100.00;93630.72;5133435;27;20049;-69
2021/12/29 06:34:58;;;;;;;57.92;30.42;;;;;;;5.21;100.00;93633.19;5133706;27;20031;-70
2021/12/29 06:37:24;;;;;;;53.40;30.42;;;;;;;5.25;100.00;93633.72;5133882;27;20145;-70
2021/12/29 06:39:49;;;;;;;57.05;31.25;;;;;;;5.53;100.00;93635.25;5134028;27;20050;-70
2021/12/29 06:42:16;;;;;;;60.10;32.63;;;;;;;5.59;100.00;93636.78;5133522;27;20428;-70
2021/12/29 06:44:43;;;;;;;65.72;32.20;;;;;;;5.48;100.00;93633.22;5133803;27;20031;-71
2021/12/29 06:47:08;;;;;;;56.58;31.15;;;;;;;5.46;100.00;93624.91;5133400;27;20023;-69
2021/12/29 06:49:35;;;;;;;62.67;32.10;;;;;;;5.61;100.00;93638.25;5133446;27;20062;-69
2021/12/29 06:52:02;;;;;;;59.17;31.45;;;;;;;5.63;100.00;93638.50;5132463;27;20030;-70
2021/12/29 06:54:28;;;;;;;64.00;33.38;;;;;;;5.61;100.00;93638.25;5133623;27;20023;-70
2021/12/29 06:56:53;;;;;;;68.18;34.35;;;;;;;5.68;100.00;93635.88;5133184;27;20043;-74
2021/12/29 06:59:19;;;;;;;65.88;34.83;;;;;;;5.70;100.00;93654.22;5133362;27;20034;-70
2021/12/29 07:01:45;;;;;;;66.57;35.03;;;;;;;5.73;100.00;93647.91;5133311;27;20110;-70
2021/12/29 07:04:11;;;;;;;69.90;35.28;;;;;;;5.56;100.00;93643.13;5133821;27;20072;-70
2021/12/29 07:06:36;;;;;;;72.55;36.60;;;;;;;5.54;100.00;93644.78;5133232;27;20027;-69
2021/12/29 07:09:03;;;;;;;72.10;37.33;;;;;;;5.70;100.00;93657.69;5133510;27;20022;-70
2021/12/29 07:11:28;;;;;;;77.38;37.13;;;;;;;5.51;100.00;93651.88;5136115;27;20030;-70
2021/12/29 07:13:53;;;;;;;80.20;37.55;;;;;;;5.53;100.00;93654.06;5135989;27;20379;-70
2021/12/29 07:16:19;;;;;;;90.78;39.20;;;;;;;5.56;100.00;93656.56;5137470;27;20023;-70
2021/12/29 07:18:48;;;;;;;92.05;42.45;;;;;;;5.67;100.00;93653.25;5137437;27;20019;-70
2021/12/29 07:21:14;;;;;;;92.60;40.10;;;;;;;5.72;100.00;93657.19;5137384;27;20102;-71
2021/12/29 07:23:40;;;;;;;82.68;40.03;;;;;;;5.67;100.00;93652.50;5135635;27;20110;-69
2021/12/29 07:26:05;;;;;;;82.65;38.60;;;;;;;5.85;100.00;93662.19;5137075;27;20451;-70
2021/12/29 07:28:37;;;;;;;82.85;40.83;;;;;;;5.93;100.00;93663.25;5136516;27;20031;-70
2021/12/29 07:31:02;;;;;;;;;;;;;;;5.67;100.00;93663.25;5136980;27;20027;-70
2021/12/29 07:33:28;;;;;;;73.18;36.38;;;;;;;5.96;100.00;93664.25;5136844;27;20260;-69
2021/12/29 07:35:53;;;;;;;65.00;34.05;;;;;;;6.06;100.00;93660.94;5136356;27;20451;-69
2021/12/29 07:38:19;;;;;;;65.18;34.75;;;;;;;6.21;100.00;93660.81;5135318;27;20019;-69
2021/12/29 07:40:44;;;;;;;71.75;34.53;;;;;;;5.85;100.00;93662.97;5136403;27;20404;-70
2021/12/29 07:43:10;;;;;;;65.40;33.38;;;;;;;5.85;100.00;93662.19;5136374;27;20056;-71
2021/12/29 07:45:36;;;;;;;69.47;34.33;;;;;;;5.80;100.00;93655.56;5136555;27;20084;-71
2021/12/29 07:48:04;;;;;;;71.63;35.00;;;;;;;5.82;100.00;93660.47;5136113;27;20122;-71
2021/12/29 07:50:30;;;;;;;65.57;34.13;;;;;;;5.84;100.00;93666.13;5136333;27;20051;-69
2021/12/29 07:52:55;;;;;;;77.30;35.10;;;;;;;5.86;100.00;93663.69;5136530;27;20375;-69
2021/12/29 07:55:21;;;;;;;66.80;34.53;;;;;;;5.95;100.00;93660.84;5135805;27;20030;-69
2021/12/29 07:57:47;;;;;;;65.80;34.20;;;;;;;5.83;100.00;93665.38;5135982;27;20019;-70
2021/12/29 08:00:14;;;;;;;66.05;35.13;;;;;;;5.68;100.00;93660.09;5136417;27;20061;-70
2021/12/29 08:02:40;;;;;;;59.80;33.90;;;;;;;5.89;100.00;93665.44;5135272;27;20430;-70
2021/12/29 08:05:07;;;;;;;67.53;36.50;;;;;;;5.71;100.00;93658.41;5135943;27;20443;-70
2021/12/29 08:07:33;;;;;;;83.13;38.58;;;;;;;5.99;100.00;93660.66;5136115;27;20055;-71
2021/12/29 08:09:59;;;;;;;97.55;46.38;;;;;;;5.89;100.00;93663.50;5136128;27;20037;-71
2021/12/29 08:12:25;;;;;;;83.30;41.78;;;;;;;5.69;100.00;93661.59;5134830;27;20023;-69
2021/12/29 08:14:51;;;;;;;89.40;48.05;;;;;;;5.90;100.00;93659.59;5136174;27;20027;-69
2021/12/29 08:17:16;;;;;;;90.57;47.67;;;;;;;5.76;100.00;93660.41;5135593;27;20083;-69
2021/12/29 08:19:43;;;;;;;111.20;56.08;;;;;;;5.81;100.00;93657.06;5135559;27;20460;-70
2021/12/29 08:22:09;;;;;;;90.45;49.72;;;;;;;5.99;100.00;93661.38;5135481;27;20038;-69
2021/12/29 08:24:34;;;;;;;86.07;43.90;;;;;;;6.22;100.00;93661.59;5134540;27;20031;-69
2021/12/29 08:27:00;;;;;;;85.75;44.08;;;;;;;6.12;100.00;93663.69;5134434;27;20026;-70
2021/12/29 08:29:25;;;;;;;86.43;45.90;;;;;;;6.13;100.00;93662.47;5135391;27;20520;-70
2021/12/29 08:31:51;;;;;;;85.40;46.85;;;;;;;5.99;100.00;93657.97;5117486;27;20038;-69
2021/12/29 08:34:16;;;;;;;85.25;44.38;;;;;;;5.99;100.00;93660.66;5135279;27;20023;-69
2021/12/29 08:36:42;;;;;;;88.43;49.22;;;;;;;5.92;100.00;93662.53;5135561;27;20023;-70
2021/12/29 08:39:07;;;;;;;88.88;45.50;;;;;;;5.70;100.00;93656.94;5134195;27;20027;-70
2021/12/29 08:41:34;;;;;;;80.10;43.45;;;;;;;5.92;100.00;93659.84;5135195;27;20023;-70
2021/12/29 08:44:00;;;;;;;75.57;40.20;;;;;;;6.00;100.00;93656.72;5134154;27;20090;-70
2021/12/29 08:46:25;;;;;;;73.60;39.50;;;;;;;5.95;100.00;93660.09;5135035;27;20050;-70
2021/12/29 08:48:51;;;;;;;75.53;40.08;;;;;;;6.17;100.00;93651.50;5135208;27;20115;-70
2021/12/29 08:51:19;;;;;;;71.88;39.58;;;;;;;6.21;100.00;93658.13;5135055;27;20038;-70
2021/12/29 08:53:46;;;;;;;78.00;40.97;;;;;;;6.41;100.00;93661.97;5135175;27;20035;-70
2021/12/29 08:56:13;;;;;;;62.97;36.22;;;;;;;6.20;100.00;93659.38;5135028;27;20055;-71
2021/12/29 08:58:38;;;;;;;67.68;36.40;;;;;;;6.34;100.00;93655.06;5134647;27;20027;-71
2021/12/29 09:01:04;;;;;;;61.78;35.60;;;;;;;6.36;100.00;93659.97;5134033;27;20039;-71
2021/12/29 09:03:30;;;;;;;67.07;35.95;;;;;;;6.54;100.00;93654.19;5134994;27;20023;-71
2021/12/29 09:05:55;;;;;;;63.63;36.03;;;;;;;6.55;100.00;93654.94;5135119;27;20015;-71
2021/12/29 09:08:21;;;;;;;62.03;36.03;;;;;;;6.64;100.00;93646.69;5134934;27;20019;-70
2021/12/29 09:10:46;;;;;;;57.38;32.85;;;;;;;6.66;100.00;93651.59;5133939;27;20061;-70
2021/12/29 09:13:13;;;;;;;55.30;32.03;;;;;;;6.48;100.00;93644.63;5134901;27;20019;-70
2021/12/29 09:15:39;;;;;;;60.38;33.70;;;;;;;6.59;100.00;93640.00;5134749;27;20022;-70
2021/12/29 09:18:05;;;;;;;60.80;33.78;;;;;;;6.66;100.00;93630.75;5134548;27;20023;-70
2021/12/29 09:20:33;;;;;;;58.38;33.63;;;;;;;6.81;100.00;93630.56;5134545;27;20023;-69
2021/12/29 09:23:06;;;;;;;61.40;33.38;;;;;;;6.92;100.00;93625.22;5134434;27;20027;-69
2021/12/29 09:25:32;;;;;;;53.90;31.77;;;;;;;6.96;100.00;93621.59;5134626;27;20406;-70
2021/12/29 09:27:58;;;;;;;53.22;32.67;;;;;;;7.04;100.00;93623.31;5134265;27;20482;-69
2021/12/29 09:30:26;;;;;;;58.15;33.25;;;;;;;7.02;100.00;93614.25;5133304;27;20023;-70
2021/12/29 09:32:52;;;;;;;63.90;35.10;;;;;;;7.03;100.00;93608.34;5133846;27;20049;-69
2021/12/29 09:35:20;;;;;;;60.13;34.80;;;;;;;7.11;100.00;93603.97;5134254;27;20455;-70
2021/12/29 09:37:45;;;;;;;57.00;34.47;;;;;;;7.23;100.00;93595.94;5133193;27;20031;-70
2021/12/29 09:40:13;;;;;;;61.00;35.72;;;;;;;7.23;100.00;93602.06;5134141;27;20474;-70
2021/12/29 09:42:39;;;;;;;64.90;36.42;;;;;;;7.22;100.00;93600.56;5134186;27;20037;-72
2021/12/29 09:45:07;;;;;;;68.40;40.40;;;;;;;7.33;100.00;93605.25;5134323;27;20030;-70
2021/12/29 09:47:33;;;;;;;76.50;42.75;;;;;;;7.36;100.00;93598.91;5132846;27;20114;-70
2021/12/29 09:50:00;;;;;;;77.95;44.05;;;;;;;7.64;100.00;93606.31;5133926;27;20023;-70
2021/12/29 09:52:29;;;;;;;72.78;42.80;;;;;;;7.61;100.00;93602.63;5134451;27;20026;-70
2021/12/29 09:54:56;;;;;;;68.90;40.92;;;;;;;7.56;100.00;93600.66;5132907;27;20102;-70
2021/12/29 09:57:22;;;;;;;71.13;39.92;;;;;;;7.54;100.00;93595.00;5133850;27;20035;-70
2021/12/29 09:59:48;;;;;;;65.55;37.33;;;;;;;7.78;100.00;93594.56;5133842;27;20027;-70
2021/12/29 10:02:13;;;;;;;72.88;42.53;;;;;;;7.75;100.00;93586.69;5133937;27;20023;-70
2021/12/29 10:04:39;;;;;;;66.88;38.88;;;;;;;7.69;100.00;93585.94;5133833;27;20094;-70
2021/12/29 10:07:15;;;;;;;64.25;38.13;;;;;;;8.03;100.00;93583.25;5133707;27;20432;-70
2021/12/29 10:09:41;;;;;;;59.83;35.67;;;;;;;7.79;100.00;93579.06;5132723;28;20023;-70
2021/12/29 10:12:10;;;;;;;61.25;36.42;;;;;;;7.78;100.00;93583.00;5133961;27;20023;-70
2021/12/29 10:14:35;;;;;;;62.25;36.50;;;;;;;8.10;100.00;93574.66;5133997;27;20019;-72
2021/12/29 10:17:01;;;;;;;64.22;37.03;;;;;;;8.05;100.00;93570.00;5133827;27;20046;-71
2021/12/29 10:19:34;;;;;;;67.88;37.72;;;;;;;8.08;100.00;93577.09;5133741;27;20447;-70
2021/12/29 10:22:00;;;;;;;69.93;38.38;;;;;;;8.04;100.00;93566.53;5133837;27;20034;-71
2021/12/29 10:24:25;;;;;;;59.25;37.35;;;;;;;8.15;100.00;93560.38;5133990;27;20015;-71
2021/12/29 10:26:56;;;;;;;59.65;37.63;;;;;;;8.09;100.00;93563.09;5133623;27;20473;-70
2021/12/29 10:29:22;;;;;;;66.38;39.00;;;;;;;8.05;100.00;93562.59;5134004;27;20115;-71
2021/12/29 10:31:55;;;;;;;66.22;38.65;;;;;;;8.10;100.00;93569.25;5133680;27;20077;-70
2021/12/29 10:34:26;;;;;;;67.32;38.10;;;;;;;7.99;100.00;93563.84;5133689;27;20019;-69
2021/12/29 10:36:57;;;;;;;68.70;39.45;;;;;;;8.09;100.00;93562.38;5133940;27;20023;-71
2021/12/29 10:39:35;;;;;;;67.45;38.25;;;;;;;8.02;100.00;93552.06;5133569;27;20027;-70
2021/12/29 10:42:03;;;;;;;70.65;40.38;;;;;;;8.23;100.00;93555.94;5133773;27;20400;-70
2021/12/29 10:44:36;;;;;;;70.35;39.13;;;;;;;8.25;100.00;93558.91;5133496;27;20015;-69
2021/12/29 10:47:21;;;;;;;69.65;39.25;;;;;;;8.10;100.00;93553.03;5137417;27;20034;-70
2021/12/29 10:49:57;;;;;;;66.85;39.45;;;;;;;8.12;100.00;93545.16;5136666;27;20345;-70
2021/12/29 10:52:31;;;;;;;68.70;39.80;;;;;;;8.13;100.00;93552.06;5136593;27;20432;-69
2021/12/29 10:54:57;;;;;;;80.93;45.80;;;;;;;7.90;100.00;93551.31;5137332;27;20443;-72
2021/12/29 10:57:22;;;;;;;90.47;51.42;;;;;;;7.88;100.00;93549.13;5137103;27;20084;-70
2021/12/29 10:59:55;;;;;;;103.30;56.45;;;;;;;7.75;100.00;93551.56;5137860;27;20080;-69
2021/12/29 11:02:25;;;;;;;108.00;56.67;;;;;;;7.67;100.00;93543.22;5137522;27;20110;-69
2021/12/29 11:04:57;;;;;;;113.47;59.53;;;;;;;7.79;100.00;93542.00;5137441;27;20027;-70
2021/12/29 11:07:32;;;;;;;105.85;56.20;;;;;;;7.71;100.00;93535.59;5137076;27;20019;-70
2021/12/29 11:10:14;;;;;;;106.38;57.60;;;;;;;7.56;100.00;93530.44;5137505;27;20405;-70
2021/12/29 11:12:54;;;;;;;108.28;56.60;;;;;;;7.32;100.00;93533.63;5137149;27;20483;-69
2021/12/29 11:15:32;;;;;;;108.43;57.25;;;;;;;7.65;100.00;93531.44;5137418;27;20023;-71
2021/12/29 11:18:04;;;;;;;105.80;56.90;;;;;;;7.70;100.00;93528.00;5137392;27;20019;-72
2021/12/29 11:20:31;;;;;;;102.05;54.45;;;;;;;7.97;100.00;93523.81;5137486;27;20474;-68
2021/12/29 11:23:23;;;;;;;97.75;53.97;;;;;;;8.05;100.00;93515.94;5137137;27;20110;-68
2021/12/29 11:25:50;;;;;;;86.82;49.80;;;;;;;7.99;100.00;93524.06;5134881;27;20035;-68